createdAt,value
2018-03-19T00:01:09.488Z,11.07
2018-03-19T00:03:37.905Z,12.63
2018-03-19T00:06:05.816Z,12.07
2018-03-19T00:08:33.923Z,10.73
2018-03-19T00:11:01.907Z,10.00
2018-03-19T00:13:30.069Z,14.57
2018-03-19T00:15:59.066Z,15.00
2018-03-19T00:18:27.022Z,14.80
2018-03-19T00:20:54.895Z,7.87
2018-03-19T00:23:22.772Z,13.00
2018-03-19T00:25:50.676Z,13.20
2018-03-19T00:28:18.592Z,10.70
2018-03-19T00:30:46.485Z,13.60
2018-03-19T00:33:14.416Z,14.30
2018-03-19T00:35:42.272Z,10.17
2018-03-19T00:38:10.149Z,11.30
2018-03-19T00:40:38.053Z,10.37
2018-03-19T00:43:05.980Z,26.50
2018-03-19T00:45:33.873Z,13.17
2018-03-19T00:48:02.398Z,11.43
2018-03-19T00:50:30.704Z,10.93
2018-03-19T00:52:59.198Z,14.47
2018-03-19T00:55:27.690Z,14.57
2018-03-19T00:58:02.888Z,10.83
2018-03-19T01:00:31.184Z,12.10
2018-03-19T01:03:00.327Z,12.63
2018-03-19T01:05:29.152Z,13.30
2018-03-19T01:07:58.153Z,12.67
2018-03-19T01:10:26.681Z,14.90
2018-03-19T01:12:54.646Z,11.57
2018-03-19T01:15:22.600Z,16.00
2018-03-19T01:17:50.473Z,12.53
2018-03-19T01:20:18.402Z,10.87
2018-03-19T01:22:46.297Z,9.67
2018-03-19T01:25:14.545Z,14.00
2018-03-19T01:27:42.509Z,17.93
2018-03-19T01:30:10.486Z,10.00
2018-03-19T01:32:38.412Z,12.90
2018-03-19T01:35:06.348Z,13.30
2018-03-19T01:37:34.319Z,14.70
2018-03-19T01:40:02.397Z,14.10
2018-03-19T01:42:30.438Z,9.97
2018-03-19T01:44:58.323Z,17.17
2018-03-19T01:47:26.200Z,13.80
2018-03-19T01:49:54.213Z,10.40
2018-03-19T01:52:28.225Z,12.43
2018-03-19T01:54:56.159Z,16.63
2018-03-19T01:57:24.146Z,13.93
2018-03-19T01:59:52.221Z,14.03
2018-03-19T02:02:20.088Z,15.33
2018-03-19T02:04:48.169Z,13.37
2018-03-19T02:07:16.063Z,22.13
2018-03-19T02:09:43.972Z,16.63
2018-03-19T02:12:11.814Z,12.33
2018-03-19T02:14:39.713Z,13.70
2018-03-19T02:17:07.609Z,12.73
2018-03-19T02:19:35.535Z,15.20
2018-03-19T02:22:03.435Z,13.27
2018-03-19T02:24:31.404Z,17.00
2018-03-19T02:26:59.357Z,17.90
2018-03-19T02:29:27.217Z,15.57
2018-03-19T02:31:55.096Z,14.23
2018-03-19T02:34:22.948Z,15.63
2018-03-19T02:36:50.837Z,10.87
2018-03-19T02:39:18.779Z,14.83
2018-03-19T02:41:46.651Z,12.80
2018-03-19T02:44:14.599Z,19.37
2018-03-19T02:46:42.493Z,13.50
2018-03-19T02:49:10.390Z,15.27
2018-03-19T02:51:38.306Z,11.73
2018-03-19T02:54:06.265Z,11.90
2018-03-19T02:56:34.177Z,13.17
2018-03-19T02:59:02.050Z,12.97
2018-03-19T03:01:29.961Z,12.87
2018-03-19T03:03:57.883Z,8.80
2018-03-19T03:06:25.792Z,13.37
2018-03-19T03:08:53.830Z,12.87
2018-03-19T03:11:21.712Z,12.27
2018-03-19T03:13:49.709Z,12.13
2018-03-19T03:16:17.628Z,16.33
2018-03-19T03:18:45.513Z,13.80
2018-03-19T03:21:13.460Z,10.13
2018-03-19T03:23:41.456Z,13.93
2018-03-19T03:26:09.352Z,12.50
2018-03-19T03:28:37.218Z,12.67
2018-03-19T03:31:05.260Z,13.57
2018-03-19T03:33:33.153Z,12.80
2018-03-19T03:36:01.019Z,12.33
2018-03-19T03:38:28.971Z,16.20
2018-03-19T03:40:56.898Z,14.60
2018-03-19T03:43:24.878Z,14.80
2018-03-19T03:45:52.836Z,17.73
2018-03-19T03:48:20.773Z,10.63
2018-03-19T03:50:48.677Z,20.87
2018-03-19T03:53:16.567Z,11.57
2018-03-19T03:55:44.480Z,12.03
2018-03-19T03:58:12.345Z,12.20
2018-03-19T04:00:40.254Z,16.97
2018-03-19T04:03:08.136Z,16.63
2018-03-19T04:05:36.087Z,14.87
2018-03-19T04:08:04.011Z,17.70
2018-03-19T04:10:31.935Z,14.47
2018-03-19T04:12:59.809Z,12.33
2018-03-19T04:15:27.755Z,11.83
2018-03-19T04:17:55.625Z,14.60
2018-03-19T04:20:23.517Z,12.30
2018-03-19T04:22:51.546Z,12.27
2018-03-19T04:25:19.544Z,13.00
2018-03-19T04:27:47.473Z,16.60
2018-03-19T04:30:15.348Z,11.77
2018-03-19T04:32:43.325Z,10.90
2018-03-19T04:35:11.217Z,10.70
2018-03-19T04:37:39.154Z,16.37
2018-03-19T04:40:07.046Z,14.37
2018-03-19T04:42:35.177Z,12.40
2018-03-19T04:45:03.115Z,8.73
2018-03-19T04:47:31.067Z,14.27
2018-03-19T04:49:58.932Z,9.73
2018-03-19T04:52:26.820Z,8.43
2018-03-19T04:54:54.946Z,17.03
2018-03-19T04:57:22.859Z,14.63
2018-03-19T04:59:50.754Z,13.20
2018-03-19T05:02:18.739Z,17.27
2018-03-19T05:04:46.692Z,23.10
2018-03-19T05:07:14.601Z,10.93
2018-03-19T05:09:42.503Z,14.90
2018-03-19T05:12:10.392Z,14.80
2018-03-19T05:14:38.381Z,20.73
2018-03-19T05:17:06.382Z,9.93
2018-03-19T05:19:34.310Z,20.70
2018-03-19T05:22:02.288Z,10.50
2018-03-19T05:24:30.203Z,15.63
2018-03-19T05:26:58.067Z,12.90
2018-03-19T05:29:26.047Z,11.40
2018-03-19T05:31:54.037Z,15.80
2018-03-19T05:34:21.948Z,15.53
2018-03-19T05:36:49.905Z,11.30
2018-03-19T05:39:17.873Z,7.93
2018-03-19T05:41:45.794Z,12.60
2018-03-19T05:44:13.678Z,15.07
2018-03-19T05:46:41.544Z,13.97
2018-03-19T05:49:09.510Z,14.70
2018-03-19T05:51:37.474Z,12.27
2018-03-19T05:54:05.448Z,11.50
2018-03-19T05:56:33.585Z,12.97
2018-03-19T05:59:01.616Z,19.43
2018-03-19T06:01:29.573Z,13.97
2018-03-19T06:03:57.606Z,12.40
2018-03-19T06:06:25.534Z,20.13
2018-03-19T06:08:53.425Z,13.33
2018-03-19T06:11:21.343Z,14.10
2018-03-19T06:13:49.244Z,15.47
2018-03-19T06:16:17.105Z,17.37
2018-03-19T06:18:45.030Z,14.27
2018-03-19T06:21:12.901Z,14.30
2018-03-19T06:23:40.803Z,15.07
2018-03-19T06:26:08.646Z,14.10
2018-03-19T06:28:36.540Z,19.73
2018-03-19T06:31:04.434Z,16.17
2018-03-19T06:33:32.305Z,15.23
2018-03-19T06:36:00.255Z,19.23
2018-03-19T06:38:28.137Z,20.63
2018-03-19T06:40:55.985Z,15.20
2018-03-19T06:43:23.949Z,14.13
2018-03-19T06:45:51.842Z,15.23
2018-03-19T06:48:19.732Z,14.13
2018-03-19T06:50:47.616Z,15.57
2018-03-19T06:53:15.532Z,18.53
2018-03-19T06:55:43.477Z,28.23
2018-03-19T06:58:11.366Z,17.80
2018-03-19T07:00:39.272Z,13.80
2018-03-19T07:03:07.135Z,17.73
2018-03-19T07:05:35.144Z,17.10
2018-03-19T07:08:03.004Z,11.80
2018-03-19T07:10:30.869Z,14.47
2018-03-19T07:12:58.751Z,14.63
2018-03-19T07:15:26.623Z,16.50
2018-03-19T07:17:55.612Z,20.53
2018-03-19T07:20:23.514Z,21.87
2018-03-19T07:22:51.476Z,19.63
2018-03-19T07:25:19.376Z,15.13
2018-03-19T07:27:47.532Z,17.27
2018-03-19T07:30:15.479Z,23.00
2018-03-19T07:32:43.347Z,20.33
2018-03-19T07:35:11.260Z,13.13
2018-03-19T07:37:39.110Z,14.00
2018-03-19T07:40:06.987Z,17.30
2018-03-19T07:42:34.949Z,19.07
2018-03-19T07:45:02.801Z,12.03
2018-03-19T07:47:30.644Z,16.80
2018-03-19T07:49:58.523Z,17.77
2018-03-19T07:52:26.440Z,16.67
2018-03-19T07:54:54.287Z,15.20
2018-03-19T07:57:22.160Z,11.77
2018-03-19T07:59:50.028Z,10.10
2018-03-19T08:02:17.896Z,13.20
2018-03-19T08:04:45.782Z,9.53
2018-03-19T08:07:13.639Z,17.70
2018-03-19T08:09:41.505Z,10.30
2018-03-19T08:12:09.469Z,10.07
2018-03-19T08:14:37.340Z,12.33
2018-03-19T08:17:05.225Z,13.40
2018-03-19T08:19:33.191Z,14.60
2018-03-19T08:22:01.040Z,14.50
2018-03-19T08:24:28.924Z,16.80
2018-03-19T08:27:03.081Z,11.60
2018-03-19T08:29:30.940Z,13.30
2018-03-19T08:31:58.813Z,13.73
2018-03-19T08:34:26.687Z,12.70
2018-03-19T08:36:54.565Z,10.93
2018-03-19T08:39:22.423Z,13.17
2018-03-19T08:41:50.377Z,11.60
2018-03-19T08:44:18.202Z,11.70
2018-03-19T08:46:46.055Z,13.43
2018-03-19T08:49:13.920Z,13.90
2018-03-19T08:51:41.834Z,11.30
2018-03-19T08:54:09.822Z,9.03
2018-03-19T08:56:37.888Z,10.00
2018-03-19T08:59:05.978Z,8.57
2018-03-19T09:01:34.197Z,12.30
2018-03-19T09:04:02.199Z,12.60
2018-03-19T09:06:30.130Z,15.50
2018-03-19T09:08:58.042Z,8.47
2018-03-19T09:11:25.916Z,10.13
2018-03-19T09:13:54.135Z,8.63
2018-03-19T09:16:22.217Z,12.10
2018-03-19T09:18:50.094Z,7.60
2018-03-19T09:21:18.138Z,9.53
2018-03-19T09:23:46.863Z,13.47
2018-03-19T09:26:14.725Z,11.87
2018-03-19T09:28:42.620Z,14.93
2018-03-19T09:31:10.480Z,9.40
2018-03-19T09:33:38.412Z,9.73
2018-03-19T09:36:06.294Z,21.37
2018-03-19T09:38:34.168Z,11.83
2018-03-19T09:41:02.115Z,11.17
2018-03-19T09:43:29.941Z,10.80
2018-03-19T09:45:57.811Z,11.90
2018-03-19T09:48:25.691Z,9.40
2018-03-19T09:50:53.548Z,9.70
2018-03-19T09:53:21.439Z,7.87
2018-03-19T09:55:49.339Z,16.93
2018-03-19T09:58:17.232Z,7.27
2018-03-19T10:00:45.087Z,6.90
2018-03-19T10:03:13.046Z,8.87
2018-03-19T10:05:40.965Z,9.13
2018-03-19T10:08:08.833Z,7.10
2018-03-19T10:10:36.716Z,8.37
2018-03-19T10:13:04.623Z,11.90
2018-03-19T10:15:33.056Z,12.57
2018-03-19T10:18:00.923Z,11.27
2018-03-19T10:20:28.854Z,10.90
2018-03-19T10:22:56.708Z,9.90
2018-03-19T10:25:24.639Z,8.60
2018-03-19T10:27:52.483Z,10.33
2018-03-19T10:30:20.377Z,11.40
2018-03-19T10:32:48.335Z,11.50
2018-03-19T10:35:16.201Z,14.47
2018-03-19T10:37:44.083Z,10.13
2018-03-19T10:40:11.953Z,11.20
2018-03-19T10:42:39.793Z,11.17
2018-03-19T10:45:07.695Z,12.70
2018-03-19T10:47:36.708Z,8.30
2018-03-19T10:50:04.620Z,11.27
2018-03-19T10:52:32.529Z,10.93
2018-03-19T10:55:00.417Z,11.30
2018-03-19T10:57:28.259Z,15.17
2018-03-19T10:59:57.030Z,18.13
2018-03-19T11:02:27.829Z,12.37
2018-03-19T11:05:01.940Z,38.67
2018-03-19T11:07:35.936Z,42.60
2018-03-19T11:10:03.825Z,28.53
2018-03-19T11:12:31.787Z,18.77
2018-03-19T11:14:59.739Z,8.57
2018-03-19T11:17:27.662Z,11.67
2018-03-19T11:19:55.729Z,15.33
2018-03-19T11:22:23.617Z,13.10
2018-03-19T11:24:51.522Z,11.83
2018-03-19T11:27:19.368Z,14.17
2018-03-19T11:29:47.245Z,16.50
2018-03-19T11:32:15.119Z,10.80
2018-03-19T11:34:42.999Z,11.00
2018-03-19T11:37:11.641Z,11.97
2018-03-19T11:39:39.532Z,10.10
2018-03-19T11:42:07.390Z,10.97
2018-03-19T11:44:35.304Z,12.20
2018-03-19T11:47:03.247Z,9.27
2018-03-19T11:49:31.177Z,11.53
2018-03-19T11:51:59.146Z,15.40
2018-03-19T11:54:27.019Z,18.10
2018-03-19T11:56:54.866Z,13.77
2018-03-19T11:59:22.766Z,13.53
2018-03-19T12:01:50.640Z,12.50
2018-03-19T12:04:18.558Z,10.97
2018-03-19T12:06:46.431Z,13.70
2018-03-19T12:09:14.312Z,10.17
2018-03-19T12:11:42.204Z,15.63
2018-03-19T12:14:10.381Z,11.70
2018-03-19T12:16:38.344Z,8.70
2018-03-19T12:19:06.312Z,5.03
2018-03-19T12:21:34.246Z,10.30
2018-03-19T12:24:02.208Z,14.03
2018-03-19T12:26:30.096Z,20.87
2018-03-19T12:28:58.454Z,7.27
2018-03-19T12:31:26.288Z,7.70
2018-03-19T12:33:54.160Z,12.97
2018-03-19T12:36:22.074Z,11.90
2018-03-19T12:38:49.896Z,9.53
2018-03-19T12:41:17.805Z,9.30
2018-03-19T12:43:45.653Z,9.07
2018-03-19T12:46:13.536Z,7.87
2018-03-19T12:48:41.420Z,8.37
2018-03-19T12:51:09.308Z,6.80
2018-03-19T12:53:37.194Z,15.90
2018-03-19T12:56:05.059Z,9.80
2018-03-19T12:58:32.944Z,11.80
2018-03-19T13:01:00.828Z,10.77
2018-03-19T13:03:28.666Z,11.50
2018-03-19T13:05:56.546Z,8.63
2018-03-19T13:08:24.378Z,7.87
2018-03-19T13:10:52.310Z,6.47
2018-03-19T13:13:20.218Z,7.20
2018-03-19T13:15:48.109Z,9.97
2018-03-19T13:18:16.023Z,15.73
2018-03-19T13:20:43.902Z,9.63
2018-03-19T13:23:11.743Z,13.23
2018-03-19T13:25:39.637Z,13.03
2018-03-19T13:28:07.538Z,16.03
2018-03-19T13:30:35.409Z,11.07
2018-03-19T13:33:03.258Z,15.13
2018-03-19T13:35:31.179Z,9.53
2018-03-19T13:37:59.065Z,10.43
2018-03-19T13:40:27.071Z,19.37
2018-03-19T13:42:54.992Z,17.20
2018-03-19T13:45:22.899Z,12.00
2018-03-19T13:47:50.732Z,10.80
2018-03-19T13:50:19.747Z,16.37
2018-03-19T13:52:47.688Z,10.03
2018-03-19T13:55:15.549Z,14.50
2018-03-19T13:57:43.456Z,18.20
2018-03-19T14:00:11.340Z,8.33
2018-03-19T14:02:39.175Z,12.13
2018-03-19T14:05:07.069Z,8.80
2018-03-19T14:07:34.983Z,8.60
2018-03-19T14:10:02.844Z,18.47
2018-03-19T14:12:30.784Z,9.60
2018-03-19T14:14:58.663Z,11.27
2018-03-19T14:17:26.520Z,16.50
2018-03-19T14:19:54.391Z,23.73
2018-03-19T14:22:22.263Z,16.50
2018-03-19T14:24:50.120Z,13.70
2018-03-19T14:27:18.012Z,16.70
2018-03-19T14:29:46.031Z,12.70
2018-03-19T14:32:13.901Z,12.30
2018-03-19T14:34:41.905Z,11.93
2018-03-19T14:37:09.759Z,16.40
2018-03-19T14:39:37.623Z,14.80
2018-03-19T14:42:06.123Z,17.47
2018-03-19T14:44:34.019Z,13.90
2018-03-19T14:47:01.877Z,18.37
2018-03-19T14:49:29.777Z,14.70
2018-03-19T14:51:57.803Z,14.30
2018-03-19T14:54:25.767Z,12.80
2018-03-19T14:56:53.650Z,11.13
2018-03-19T14:59:21.536Z,12.20
2018-03-19T15:01:49.387Z,14.13
2018-03-19T15:04:17.257Z,20.40
2018-03-19T15:06:45.117Z,12.40
2018-03-19T15:09:12.986Z,13.33
2018-03-19T15:11:40.869Z,12.07
2018-03-19T15:14:09.991Z,12.70
2018-03-19T15:16:38.057Z,11.03
2018-03-19T15:19:06.091Z,13.17
2018-03-19T15:21:33.979Z,13.90
2018-03-19T15:24:01.824Z,19.37
2018-03-19T15:26:29.712Z,33.90
2018-03-19T15:28:57.563Z,14.33
2018-03-19T15:31:25.478Z,18.10
2018-03-19T15:33:53.318Z,13.57
2018-03-19T15:36:21.207Z,13.57
2018-03-19T15:38:49.145Z,27.83
2018-03-19T15:41:17.011Z,10.67
2018-03-19T15:43:44.950Z,12.37
2018-03-19T15:46:12.936Z,19.10
2018-03-19T15:48:40.878Z,10.57
2018-03-19T15:51:09.022Z,14.87
2018-03-19T15:53:36.913Z,17.97
2018-03-19T15:56:04.806Z,16.43
2018-03-19T15:58:32.724Z,12.67
2018-03-19T16:01:00.572Z,11.63
2018-03-19T16:03:28.507Z,13.73
2018-03-19T16:05:56.649Z,11.43
2018-03-19T16:08:24.834Z,17.20
2018-03-19T16:10:52.824Z,13.40
2018-03-19T16:13:20.964Z,14.93
2018-03-19T16:15:49.018Z,14.93
2018-03-19T16:18:16.864Z,10.20
2018-03-19T16:20:44.780Z,17.03
2018-03-19T16:23:12.651Z,14.83
2018-03-19T16:25:40.648Z,15.13
2018-03-19T16:28:08.529Z,18.90
2018-03-19T16:30:36.430Z,18.27
2018-03-19T16:33:04.440Z,13.20
2018-03-19T16:35:32.340Z,17.03
2018-03-19T16:38:00.260Z,16.70
2018-03-19T16:40:28.173Z,22.00
2018-03-19T16:42:56.027Z,13.20
2018-03-19T16:45:23.896Z,17.47
2018-03-19T16:47:51.772Z,12.90
2018-03-19T16:50:19.634Z,13.67
2018-03-19T16:52:47.508Z,15.23
2018-03-19T16:55:15.410Z,16.93
2018-03-19T16:57:43.306Z,13.60
2018-03-19T17:00:11.175Z,20.73
2018-03-19T17:02:39.063Z,13.50
2018-03-19T17:05:07.005Z,14.93
2018-03-19T17:07:34.901Z,13.63
2018-03-19T17:10:02.785Z,21.13
2018-03-19T17:12:30.649Z,17.87
2018-03-19T17:14:58.499Z,17.83
2018-03-19T17:17:26.360Z,14.33
2018-03-19T17:19:54.192Z,16.80
2018-03-19T17:22:22.068Z,18.03
2018-03-19T17:24:49.933Z,14.53
2018-03-19T17:27:17.852Z,16.17
2018-03-19T17:29:45.707Z,17.60
2018-03-19T17:32:13.665Z,18.27
2018-03-19T17:34:41.622Z,23.77
2018-03-19T17:37:09.533Z,15.17
2018-03-19T17:39:37.407Z,12.80
2018-03-19T17:42:05.784Z,15.40
2018-03-19T17:44:34.268Z,13.77
2018-03-19T17:47:02.324Z,17.17
2018-03-19T17:49:30.242Z,30.77
2018-03-19T17:51:58.259Z,19.83
2018-03-19T17:54:26.274Z,20.27
2018-03-19T17:56:54.357Z,18.57
2018-03-19T17:59:22.220Z,19.00
2018-03-19T18:01:50.132Z,24.20
2018-03-19T18:04:18.108Z,24.57
2018-03-19T18:06:46.128Z,25.17
2018-03-19T18:09:14.079Z,23.60
2018-03-19T18:11:42.111Z,22.50
2018-03-19T18:14:10.160Z,23.50
2018-03-19T18:16:38.222Z,22.87
2018-03-19T18:19:06.353Z,24.50
2018-03-19T18:21:34.321Z,28.07
2018-03-19T18:24:02.888Z,26.03
2018-03-19T18:26:30.820Z,22.93
2018-03-19T18:28:58.679Z,22.60
2018-03-19T18:31:26.532Z,21.20
2018-03-19T18:33:57.115Z,25.70
2018-03-19T18:36:25.077Z,22.33
2018-03-19T18:38:52.974Z,21.50
2018-03-19T18:41:20.864Z,28.50
2018-03-19T18:43:48.812Z,21.73
2018-03-19T18:46:16.705Z,30.87
2018-03-19T18:48:44.950Z,27.33
2018-03-19T18:51:12.807Z,24.93
2018-03-19T18:53:40.808Z,29.20
2018-03-19T18:56:08.711Z,19.43
2018-03-19T18:58:36.630Z,20.80
2018-03-19T19:01:04.690Z,21.23
2018-03-19T19:03:32.648Z,20.63
2018-03-19T19:06:00.509Z,20.43
2018-03-19T19:08:28.391Z,21.00
2018-03-19T19:10:56.280Z,25.47
2018-03-19T19:13:24.138Z,32.63
2018-03-19T19:15:52.281Z,22.30
2018-03-19T19:18:20.185Z,25.97
2018-03-19T19:20:48.079Z,25.03
2018-03-19T19:23:16.133Z,20.63
2018-03-19T19:25:43.988Z,25.63
2018-03-19T19:28:11.938Z,22.43
2018-03-19T19:30:39.852Z,24.10
2018-03-19T19:33:07.749Z,21.40
2018-03-19T19:35:35.669Z,21.93
2018-03-19T19:38:03.550Z,23.90
2018-03-19T19:40:31.567Z,33.17
2018-03-19T19:42:59.433Z,26.03
2018-03-19T19:45:27.283Z,26.60
2018-03-19T19:47:55.160Z,29.40
2018-03-19T19:50:22.995Z,28.27
2018-03-19T19:52:50.840Z,26.70
2018-03-19T19:55:18.887Z,27.53
2018-03-19T19:57:46.783Z,27.00
2018-03-19T20:00:14.649Z,42.73
2018-03-19T20:02:42.988Z,46.23
2018-03-19T20:05:10.940Z,28.83
2018-03-19T20:07:38.839Z,28.83
2018-03-19T20:10:06.736Z,33.87
2018-03-19T20:12:34.575Z,31.63
2018-03-19T20:15:02.451Z,39.93
2018-03-19T20:17:30.306Z,33.20
2018-03-19T20:19:58.202Z,40.30
2018-03-19T20:22:26.103Z,46.10
2018-03-19T20:24:54.076Z,51.73
2018-03-19T20:27:22.005Z,46.40
2018-03-19T20:29:49.948Z,49.37
2018-03-19T20:32:17.797Z,61.33
2018-03-19T20:34:45.727Z,54.83
2018-03-19T20:37:13.695Z,71.17
2018-03-19T20:39:41.656Z,74.33
2018-03-19T20:42:09.567Z,51.97
2018-03-19T20:44:37.519Z,57.13
2018-03-19T20:47:05.409Z,62.57
2018-03-19T20:49:33.323Z,53.87
2018-03-19T20:52:01.249Z,54.70
2018-03-19T20:54:29.144Z,47.70
2018-03-19T20:56:57.040Z,64.87
2018-03-19T20:59:25.000Z,57.70
2018-03-19T21:01:52.934Z,51.50
2018-03-19T21:04:20.807Z,60.53
2018-03-19T21:06:48.644Z,35.53
2018-03-19T21:09:16.639Z,41.50
2018-03-19T21:11:44.644Z,39.17
2018-03-19T21:14:12.521Z,34.80
2018-03-19T21:16:40.448Z,29.20
2018-03-19T21:19:08.846Z,24.83
2018-03-19T21:21:36.735Z,29.40
2018-03-19T21:24:04.617Z,26.07
2018-03-19T21:26:32.499Z,25.70
2018-03-19T21:29:00.390Z,23.93
2018-03-19T21:31:29.283Z,26.90
2018-03-19T21:33:57.186Z,26.60
2018-03-19T21:36:25.052Z,25.80
2018-03-19T21:38:53.075Z,25.03
2018-03-19T21:41:20.947Z,31.33
2018-03-19T21:43:48.862Z,28.83
2018-03-19T21:46:16.752Z,27.40
2018-03-19T21:48:44.623Z,30.13
2018-03-19T21:51:12.526Z,32.83
2018-03-19T21:53:40.396Z,22.30
2018-03-19T21:56:08.298Z,38.73
2018-03-19T21:58:36.268Z,29.40
2018-03-19T22:01:04.129Z,42.53
2018-03-19T22:03:32.097Z,31.50
2018-03-19T22:06:00.013Z,30.20
2018-03-19T22:08:27.884Z,32.70
2018-03-19T22:10:55.772Z,37.53
2018-03-19T22:13:23.677Z,25.63
2018-03-19T22:15:51.660Z,34.40
2018-03-19T22:18:19.538Z,29.93
2018-03-19T22:20:47.419Z,39.83
2018-03-19T22:23:15.367Z,31.13
2018-03-19T22:25:43.248Z,26.07
2018-03-19T22:28:11.123Z,22.10
2018-03-19T22:30:39.029Z,23.60
2018-03-19T22:33:06.934Z,26.33
2018-03-19T22:35:34.864Z,22.97
2018-03-19T22:38:02.755Z,26.67
2018-03-19T22:40:30.700Z,24.27
2018-03-19T22:42:58.596Z,27.33
2018-03-19T22:45:26.491Z,30.17
2018-03-19T22:47:54.347Z,25.03
2018-03-19T22:50:22.236Z,25.67
2018-03-19T22:52:50.133Z,27.57
2018-03-19T22:55:18.027Z,30.33
2018-03-19T22:57:45.904Z,31.63
2018-03-19T23:00:13.758Z,24.03
2018-03-19T23:02:41.647Z,23.50
2018-03-19T23:05:24.415Z,22.20
2018-03-19T23:07:52.271Z,24.10
2018-03-19T23:10:20.118Z,29.03
2018-03-19T23:12:48.033Z,22.63
2018-03-19T23:15:15.898Z,28.17
2018-03-19T23:17:43.744Z,30.77
2018-03-19T23:20:11.638Z,34.50
2018-03-19T23:22:39.481Z,25.00
2018-03-19T23:25:07.341Z,25.47
2018-03-19T23:27:35.285Z,22.80
2018-03-19T23:30:03.199Z,26.10
2018-03-19T23:32:31.142Z,28.00
2018-03-19T23:34:59.069Z,23.50
2018-03-19T23:37:26.939Z,31.97
2018-03-19T23:39:54.868Z,24.53
2018-03-19T23:42:22.754Z,23.90
2018-03-19T23:44:50.639Z,28.83
2018-03-19T23:47:18.526Z,24.80
2018-03-19T23:49:46.474Z,22.90
2018-03-19T23:52:14.404Z,21.13
2018-03-19T23:54:42.619Z,24.67
2018-03-19T23:57:10.548Z,22.67
2018-03-19T23:59:38.412Z,26.10
